createdAt,value
2018-05-03T00:00:23.100Z,1001.39
2018-05-03T00:01:23.127Z,1001.39
2018-05-03T00:02:23.155Z,1001.40
2018-05-03T00:03:23.181Z,1001.42
2018-05-03T00:04:23.218Z,1001.45
2018-05-03T00:05:23.269Z,1001.46
2018-05-03T00:06:23.265Z,1001.43
2018-05-03T00:07:23.291Z,1001.42
2018-05-03T00:08:23.318Z,1001.43
2018-05-03T00:09:23.350Z,1001.43
2018-05-03T00:10:23.373Z,1001.50
2018-05-03T00:11:23.400Z,1001.48
2018-05-03T00:12:23.428Z,1001.52
2018-05-03T00:13:23.455Z,1001.52
2018-05-03T00:14:23.486Z,1001.52
2018-05-03T00:15:23.509Z,1001.55
2018-05-03T00:16:23.536Z,1001.57
2018-05-03T00:17:23.581Z,1001.59
2018-05-03T00:18:23.594Z,1001.60
2018-05-03T00:19:23.627Z,1001.62
2018-05-03T00:20:23.676Z,1001.60
2018-05-03T00:21:23.674Z,1001.65
2018-05-03T00:22:23.701Z,1001.63
2018-05-03T00:23:23.729Z,1001.64
2018-05-03T00:24:23.758Z,1001.67
2018-05-03T00:25:23.783Z,1001.71
2018-05-03T00:26:23.810Z,1001.72
2018-05-03T00:27:23.837Z,1001.77
2018-05-03T00:28:23.865Z,1001.74
2018-05-03T00:29:23.893Z,1001.76
2018-05-03T00:30:23.919Z,1001.76
2018-05-03T00:31:23.946Z,1001.82
2018-05-03T00:32:23.974Z,1001.78
2018-05-03T00:33:24.024Z,1001.80
2018-05-03T00:34:24.059Z,1001.82
2018-05-03T00:35:24.054Z,1001.84
2018-05-03T00:36:24.083Z,1001.80
2018-05-03T00:37:24.110Z,1001.82
2018-05-03T00:38:24.159Z,1001.81
2018-05-03T00:39:24.165Z,1001.83
2018-05-03T00:40:24.192Z,1001.85
2018-05-03T00:41:24.219Z,1001.83
2018-05-03T00:42:24.250Z,1001.87
2018-05-03T00:43:24.274Z,1001.87
2018-05-03T00:44:24.301Z,1001.88
2018-05-03T00:45:24.329Z,1001.90
2018-05-03T00:46:24.356Z,1001.89
2018-05-03T00:47:24.382Z,1001.97
2018-05-03T00:48:24.454Z,1002.00
2018-05-03T00:49:24.439Z,1001.99
2018-05-03T00:50:24.465Z,1002.00
2018-05-03T00:51:24.493Z,1002.04
2018-05-03T00:52:24.523Z,1002.06
2018-05-03T00:53:24.547Z,1002.02
2018-05-03T00:54:24.577Z,1002.06
2018-05-03T00:55:24.601Z,1002.04
2018-05-03T00:56:24.628Z,1002.02
2018-05-03T00:57:24.656Z,1002.04
2018-05-03T00:58:24.683Z,1002.06
2018-05-03T00:59:24.749Z,1002.05
2018-05-03T01:00:24.738Z,1002.03
2018-05-03T01:01:24.764Z,1002.04
2018-05-03T01:02:24.793Z,1002.08
2018-05-03T01:03:24.819Z,1002.07
2018-05-03T01:04:24.869Z,1002.06
2018-05-03T01:05:24.874Z,1002.08
2018-05-03T01:06:24.901Z,1002.10
2018-05-03T01:07:24.927Z,1002.12
2018-05-03T01:08:24.955Z,1002.17
2018-05-03T01:09:25.014Z,1002.18
2018-05-03T01:10:25.011Z,1002.19
2018-05-03T01:11:25.037Z,1002.23
2018-05-03T01:12:25.065Z,1002.22
2018-05-03T01:13:25.092Z,1002.25
2018-05-03T01:14:25.119Z,1002.28
2018-05-03T01:15:25.145Z,1002.26
2018-05-03T01:16:25.172Z,1002.27
2018-05-03T01:17:25.201Z,1002.26
2018-05-03T01:18:25.228Z,1002.25
2018-05-03T01:19:25.262Z,1002.26
2018-05-03T01:20:25.282Z,1002.29
2018-05-03T01:21:25.309Z,1002.27
2018-05-03T01:22:25.337Z,1002.27
2018-05-03T01:23:25.363Z,1002.26
2018-05-03T01:24:25.390Z,1002.29
2018-05-03T01:25:25.418Z,1002.25
2018-05-03T01:26:25.446Z,1002.21
2018-05-03T01:27:25.472Z,1002.24
2018-05-03T01:28:25.503Z,1002.23
2018-05-03T01:29:25.530Z,1002.28
2018-05-03T01:30:25.592Z,1002.27
2018-05-03T01:31:25.611Z,1002.26
2018-05-03T01:32:25.608Z,1002.23
2018-05-03T01:33:25.637Z,1002.27
2018-05-03T01:34:25.677Z,1002.26
2018-05-03T01:35:25.713Z,1002.29
2018-05-03T01:36:25.717Z,1002.29
2018-05-03T01:37:25.746Z,1002.31
2018-05-03T01:38:25.775Z,1002.29
2018-05-03T01:39:25.799Z,1002.33
2018-05-03T01:40:25.826Z,1002.35
2018-05-03T01:41:25.855Z,1002.35
2018-05-03T01:42:25.881Z,1002.33
2018-05-03T01:43:25.907Z,1002.34
2018-05-03T01:44:25.937Z,1002.35
2018-05-03T01:45:26.002Z,1002.38
2018-05-03T01:46:25.991Z,1002.40
2018-05-03T01:47:26.017Z,1002.39
2018-05-03T01:48:26.044Z,1002.45
2018-05-03T01:49:26.075Z,1002.44
2018-05-03T01:50:26.099Z,1002.47
2018-05-03T01:51:26.128Z,1002.47
2018-05-03T01:52:26.153Z,1002.49
2018-05-03T01:53:26.180Z,1002.47
2018-05-03T01:54:26.207Z,1002.50
2018-05-03T01:55:26.234Z,1002.54
2018-05-03T01:56:26.315Z,1002.51
2018-05-03T01:57:26.289Z,1002.52
2018-05-03T01:58:26.317Z,1002.54
2018-05-03T01:59:26.344Z,1002.56
2018-05-03T02:00:26.405Z,1002.58
2018-05-03T02:01:26.438Z,1002.60
2018-05-03T02:02:26.426Z,1002.56
2018-05-03T02:03:26.452Z,1002.63
2018-05-03T02:04:26.480Z,1002.61
2018-05-03T02:05:26.507Z,1002.64
2018-05-03T02:06:26.570Z,1002.62
2018-05-03T02:07:26.602Z,1002.62
2018-05-03T02:08:26.589Z,1002.66
2018-05-03T02:09:26.616Z,1002.68
2018-05-03T02:10:26.643Z,1002.70
2018-05-03T02:11:26.669Z,1002.72
2018-05-03T02:12:26.697Z,1002.71
2018-05-03T02:13:26.724Z,1002.68
2018-05-03T02:14:26.751Z,1002.69
2018-05-03T02:15:26.780Z,1002.74
2018-05-03T02:16:26.805Z,1002.72
2018-05-03T02:17:26.833Z,1002.73
2018-05-03T02:18:26.860Z,1002.71
2018-05-03T02:19:26.910Z,1002.71
2018-05-03T02:20:26.914Z,1002.73
2018-05-03T02:21:26.942Z,1002.75
2018-05-03T02:22:26.969Z,1002.74
2018-05-03T02:23:26.996Z,1002.72
2018-05-03T02:24:27.023Z,1002.74
2018-05-03T02:25:27.051Z,1002.76
2018-05-03T02:26:27.078Z,1002.73
2018-05-03T02:27:27.104Z,1002.78
2018-05-03T02:28:27.132Z,1002.75
2018-05-03T02:29:27.160Z,1002.76
2018-05-03T02:30:27.187Z,1002.77
2018-05-03T02:31:27.244Z,1002.75
2018-05-03T02:32:27.241Z,1002.78
2018-05-03T02:33:27.316Z,1002.78
2018-05-03T02:34:27.296Z,1002.77
2018-05-03T02:35:27.322Z,1002.77
2018-05-03T02:36:27.354Z,1002.79
2018-05-03T02:37:27.377Z,1002.83
2018-05-03T02:38:27.405Z,1002.82
2018-05-03T02:39:27.432Z,1002.85
2018-05-03T02:40:27.458Z,1002.87
2018-05-03T02:41:27.487Z,1002.85
2018-05-03T02:42:27.514Z,1002.89
2018-05-03T02:43:27.541Z,1002.89
2018-05-03T02:44:27.568Z,1002.89
2018-05-03T02:45:27.595Z,1002.90
2018-05-03T02:46:27.623Z,1002.91
2018-05-03T02:47:27.650Z,1002.91
2018-05-03T02:48:27.710Z,1002.88
2018-05-03T02:49:27.704Z,1002.89
2018-05-03T02:50:27.771Z,1002.91
2018-05-03T02:51:27.760Z,1002.92
2018-05-03T02:52:27.790Z,1002.89
2018-05-03T02:53:27.816Z,1002.86
2018-05-03T02:54:27.840Z,1002.91
2018-05-03T02:55:27.870Z,1002.89
2018-05-03T02:56:27.903Z,1002.87
2018-05-03T02:57:27.921Z,1002.92
2018-05-03T02:58:27.949Z,1002.95
2018-05-03T02:59:27.975Z,1002.97
2018-05-03T03:00:28.003Z,1003.00
2018-05-03T03:01:28.031Z,1003.00
2018-05-03T03:02:28.132Z,1003.01
2018-05-03T03:03:28.085Z,1003.04
2018-05-03T03:04:28.112Z,1003.04
2018-05-03T03:05:28.140Z,1003.08
2018-05-03T03:06:28.168Z,1003.07
2018-05-03T03:07:28.197Z,1003.12
2018-05-03T03:08:28.240Z,1003.06
2018-05-03T03:09:28.248Z,1003.12
2018-05-03T03:10:28.276Z,1003.11
2018-05-03T03:11:28.302Z,1003.14
2018-05-03T03:12:28.329Z,1003.13
2018-05-03T03:13:28.389Z,1003.12
2018-05-03T03:14:28.386Z,1003.15
2018-05-03T03:15:28.413Z,1003.14
2018-05-03T03:16:28.438Z,1003.16
2018-05-03T03:17:28.465Z,1003.16
2018-05-03T03:18:28.493Z,1003.14
2018-05-03T03:19:28.520Z,1003.11
2018-05-03T03:20:28.547Z,1003.13
2018-05-03T03:21:28.574Z,1003.17
2018-05-03T03:22:28.602Z,1003.16
2018-05-03T03:23:28.628Z,1003.15
2018-05-03T03:24:28.656Z,1003.19
2018-05-03T03:25:28.683Z,1003.20
2018-05-03T03:26:28.745Z,1003.22
2018-05-03T03:27:28.738Z,1003.24
2018-05-03T03:28:28.765Z,1003.24
2018-05-03T03:29:28.792Z,1003.23
2018-05-03T03:30:28.836Z,1003.27
2018-05-03T03:31:28.847Z,1003.23
2018-05-03T03:32:28.874Z,1003.25
2018-05-03T03:33:28.902Z,1003.24
2018-05-03T03:34:28.969Z,1003.23
2018-05-03T03:35:28.955Z,1003.21
2018-05-03T03:36:28.982Z,1003.22
2018-05-03T03:37:29.010Z,1003.22
2018-05-03T03:38:29.037Z,1003.23
2018-05-03T03:39:29.064Z,1003.27
2018-05-03T03:40:29.124Z,1003.29
2018-05-03T03:41:29.121Z,1003.32
2018-05-03T03:42:29.146Z,1003.32
2018-05-03T03:43:29.174Z,1003.35
2018-05-03T03:44:29.201Z,1003.33
2018-05-03T03:45:29.227Z,1003.35
2018-05-03T03:46:29.260Z,1003.32
2018-05-03T03:47:29.281Z,1003.34
2018-05-03T03:48:29.312Z,1003.35
2018-05-03T03:49:29.337Z,1003.30
2018-05-03T03:50:29.364Z,1003.32
2018-05-03T03:51:29.390Z,1003.29
2018-05-03T03:52:29.418Z,1003.31
2018-05-03T03:53:29.472Z,1003.29
2018-05-03T03:54:29.473Z,1003.32
2018-05-03T03:55:29.499Z,1003.33
2018-05-03T03:56:29.527Z,1003.31
2018-05-03T03:57:29.556Z,1003.31
2018-05-03T03:58:29.615Z,1003.31
2018-05-03T03:59:29.608Z,1003.35
2018-05-03T04:00:29.635Z,1003.34
2018-05-03T04:01:29.663Z,1003.37
2018-05-03T04:02:29.691Z,1003.43
2018-05-03T04:03:29.717Z,1003.41
2018-05-03T04:04:29.744Z,1003.42
2018-05-03T04:05:29.813Z,1003.45
2018-05-03T04:06:29.804Z,1003.46
2018-05-03T04:07:29.839Z,1003.46
2018-05-03T04:08:29.854Z,1003.48
2018-05-03T04:09:29.881Z,1003.48
2018-05-03T04:10:29.908Z,1003.50
2018-05-03T04:11:29.935Z,1003.51
2018-05-03T04:12:29.963Z,1003.53
2018-05-03T04:13:29.991Z,1003.52
2018-05-03T04:14:30.018Z,1003.54
2018-05-03T04:15:30.044Z,1003.51
2018-05-03T04:16:30.076Z,1003.50
2018-05-03T04:17:30.099Z,1003.51
2018-05-03T04:18:30.127Z,1003.53
2018-05-03T04:19:30.153Z,1003.52
2018-05-03T04:20:30.191Z,1003.51
2018-05-03T04:21:30.209Z,1003.52
2018-05-03T04:22:30.288Z,1003.55
2018-05-03T04:23:30.264Z,1003.52
2018-05-03T04:24:30.290Z,1003.57
2018-05-03T04:25:30.317Z,1003.60
2018-05-03T04:26:30.348Z,1003.65
2018-05-03T04:27:30.371Z,1003.64
2018-05-03T04:28:30.400Z,1003.64
2018-05-03T04:29:30.427Z,1003.69
2018-05-03T04:30:30.454Z,1003.67
2018-05-03T04:31:30.481Z,1003.62
2018-05-03T04:32:30.509Z,1003.67
2018-05-03T04:33:30.536Z,1003.65
2018-05-03T04:34:30.645Z,1003.69
2018-05-03T04:35:30.589Z,1003.71
2018-05-03T04:36:30.619Z,1003.68
2018-05-03T04:37:30.648Z,1003.76
2018-05-03T04:38:30.673Z,1003.77
2018-05-03T04:39:30.700Z,1003.76
2018-05-03T04:40:30.726Z,1003.81
2018-05-03T04:41:30.762Z,1003.77
2018-05-03T04:42:30.785Z,1003.78
2018-05-03T04:43:30.818Z,1003.80
2018-05-03T04:44:30.880Z,1003.84
2018-05-03T04:45:30.864Z,1003.79
2018-05-03T04:46:30.890Z,1003.84
2018-05-03T04:47:30.917Z,1003.80
2018-05-03T04:48:30.944Z,1003.86
2018-05-03T04:49:30.971Z,1003.82
2018-05-03T04:50:31.002Z,1003.84
2018-05-03T04:51:31.026Z,1003.82
2018-05-03T04:52:31.054Z,1003.82
2018-05-03T04:53:31.086Z,1003.87
2018-05-03T04:54:31.108Z,1003.89
2018-05-03T04:55:31.136Z,1003.93
2018-05-03T04:56:31.162Z,1003.99
2018-05-03T04:57:31.191Z,1003.95
2018-05-03T04:58:31.222Z,1003.97
2018-05-03T04:59:31.245Z,1004.00
2018-05-03T05:00:31.303Z,1003.97
2018-05-03T05:01:31.299Z,1004.00
2018-05-03T05:02:31.327Z,1004.00
2018-05-03T05:03:31.353Z,1004.01
2018-05-03T05:04:31.380Z,1004.01
2018-05-03T05:05:31.408Z,1003.97
2018-05-03T05:06:31.441Z,1004.02
2018-05-03T05:07:31.462Z,1004.04
2018-05-03T05:08:31.489Z,1004.07
2018-05-03T05:09:31.519Z,1004.05
2018-05-03T05:10:31.557Z,1004.03
2018-05-03T05:11:31.571Z,1004.08
2018-05-03T05:12:31.598Z,1004.07
2018-05-03T05:13:31.626Z,1004.05
2018-05-03T05:14:31.658Z,1004.06
2018-05-03T05:15:31.679Z,1004.06
2018-05-03T05:16:31.708Z,1004.07
2018-05-03T05:17:31.737Z,1004.09
2018-05-03T05:18:31.763Z,1004.09
2018-05-03T05:19:31.830Z,1004.09
2018-05-03T05:20:31.817Z,1004.09
2018-05-03T05:21:31.845Z,1004.06
2018-05-03T05:22:31.910Z,1004.07
2018-05-03T05:23:31.899Z,1004.08
2018-05-03T05:24:31.926Z,1004.09
2018-05-03T05:25:31.957Z,1004.07
2018-05-03T05:26:31.981Z,1004.03
2018-05-03T05:27:32.014Z,1004.08
2018-05-03T05:28:32.079Z,1004.03
2018-05-03T05:29:32.063Z,1004.05
2018-05-03T05:30:32.091Z,1004.11
2018-05-03T05:31:32.128Z,1004.13
2018-05-03T05:32:32.145Z,1004.14
2018-05-03T05:33:32.195Z,1004.16
2018-05-03T05:34:32.201Z,1004.23
2018-05-03T05:35:32.228Z,1004.23
2018-05-03T05:36:32.255Z,1004.23
2018-05-03T05:37:32.282Z,1004.24
2018-05-03T05:38:32.320Z,1004.26
2018-05-03T05:39:32.338Z,1004.26
2018-05-03T05:40:32.365Z,1004.27
2018-05-03T05:41:32.392Z,1004.28
2018-05-03T05:42:32.420Z,1004.32
2018-05-03T05:43:32.447Z,1004.34
2018-05-03T05:44:32.474Z,1004.35
2018-05-03T05:45:32.504Z,1004.38
2018-05-03T05:46:32.529Z,1004.42
2018-05-03T05:47:32.564Z,1004.40
2018-05-03T05:48:32.583Z,1004.41
2018-05-03T05:49:32.611Z,1004.41
2018-05-03T05:50:32.639Z,1004.43
2018-05-03T05:51:32.666Z,1004.42
2018-05-03T05:52:32.716Z,1004.42
2018-05-03T05:53:32.723Z,1004.48
2018-05-03T05:54:32.749Z,1004.46
2018-05-03T05:55:32.774Z,1004.51
2018-05-03T05:56:32.807Z,1004.52
2018-05-03T05:57:32.842Z,1004.53
2018-05-03T05:58:32.859Z,1004.59
2018-05-03T05:59:32.885Z,1004.58
2018-05-03T06:00:32.913Z,1004.59
2018-05-03T06:01:32.941Z,1004.61
2018-05-03T06:02:32.967Z,1004.61
2018-05-03T06:03:32.995Z,1004.65
2018-05-03T06:04:33.034Z,1004.65
2018-05-03T06:05:33.070Z,1004.65
2018-05-03T06:06:33.101Z,1004.71
2018-05-03T06:07:33.122Z,1004.69
2018-05-03T06:08:33.136Z,1004.71
2018-05-03T06:09:33.160Z,1004.73
2018-05-03T06:10:33.190Z,1004.72
2018-05-03T06:11:33.213Z,1004.72
2018-05-03T06:12:33.265Z,1004.75
2018-05-03T06:13:33.283Z,1004.76
2018-05-03T06:14:33.298Z,1004.77
2018-05-03T06:15:33.323Z,1004.81
2018-05-03T06:16:33.354Z,1004.80
2018-05-03T06:17:33.384Z,1004.81
2018-05-03T06:18:33.477Z,1004.82
2018-05-03T06:19:33.435Z,1004.82
2018-05-03T06:20:33.473Z,1004.85
2018-05-03T06:21:33.497Z,1004.84
2018-05-03T06:22:33.520Z,1004.82
2018-05-03T06:23:33.569Z,1004.81
2018-05-03T06:24:33.594Z,1004.82
2018-05-03T06:25:33.602Z,1004.87
2018-05-03T06:26:33.626Z,1004.88
2018-05-03T06:27:33.653Z,1004.90
2018-05-03T06:28:33.682Z,1004.92
2018-05-03T06:29:33.719Z,1004.93
2018-05-03T06:30:33.739Z,1004.95
2018-05-03T06:31:33.822Z,1005.00
2018-05-03T06:32:33.792Z,1005.01
2018-05-03T06:33:33.824Z,1005.05
2018-05-03T06:34:33.846Z,1005.05
2018-05-03T06:35:33.874Z,1005.09
2018-05-03T06:36:33.932Z,1005.13
2018-05-03T06:37:33.940Z,1005.14
2018-05-03T06:38:33.957Z,1005.14
2018-05-03T06:39:33.994Z,1005.11
2018-05-03T06:40:34.013Z,1005.18
2018-05-03T06:41:34.042Z,1005.13
2018-05-03T06:42:34.068Z,1005.10
2018-05-03T06:43:34.112Z,1005.14
2018-05-03T06:44:34.133Z,1005.13
2018-05-03T06:45:34.168Z,1005.14
2018-05-03T06:46:34.227Z,1005.14
2018-05-03T06:47:34.210Z,1005.12
2018-05-03T06:48:34.242Z,1005.12
2018-05-03T06:49:34.261Z,1005.10
2018-05-03T06:50:34.290Z,1005.07
2018-05-03T06:51:34.345Z,1005.11
2018-05-03T06:52:34.348Z,1005.08
2018-05-03T06:53:34.378Z,1005.08
2018-05-03T06:54:34.402Z,1005.05
2018-05-03T06:55:34.425Z,1005.04
2018-05-03T06:56:34.452Z,1005.05
2018-05-03T06:57:34.481Z,1005.03
2018-05-03T06:58:34.620Z,1005.03
2018-05-03T06:59:34.582Z,1005.06
2018-05-03T07:00:34.563Z,1005.07
2018-05-03T07:01:34.591Z,1005.09
2018-05-03T07:02:34.619Z,1005.10
2018-05-03T07:03:34.668Z,1005.10
2018-05-03T07:04:34.673Z,1005.10
2018-05-03T07:05:34.710Z,1005.09
2018-05-03T07:06:34.731Z,1005.08
2018-05-03T07:07:34.778Z,1005.12
2018-05-03T07:08:34.783Z,1005.13
2018-05-03T07:09:34.811Z,1005.17
2018-05-03T07:10:34.840Z,1005.15
2018-05-03T07:11:34.942Z,1005.17
2018-05-03T07:12:34.929Z,1005.19
2018-05-03T07:13:34.922Z,1005.20
2018-05-03T07:14:34.949Z,1005.20
2018-05-03T07:15:34.993Z,1005.19
2018-05-03T07:16:35.046Z,1005.17
2018-05-03T07:17:35.032Z,1005.21
2018-05-03T07:18:35.080Z,1005.25
2018-05-03T07:19:35.093Z,1005.28
2018-05-03T07:20:35.122Z,1005.30
2018-05-03T07:21:35.145Z,1005.27
2018-05-03T07:22:35.184Z,1005.31
2018-05-03T07:23:35.196Z,1005.32
2018-05-03T07:24:35.228Z,1005.28
2018-05-03T07:25:35.256Z,1005.29
2018-05-03T07:26:35.285Z,1005.31
2018-05-03T07:27:35.342Z,1005.29
2018-05-03T07:28:35.355Z,1005.28
2018-05-03T07:29:35.363Z,1005.29
2018-05-03T07:30:35.391Z,1005.30
2018-05-03T07:31:35.433Z,1005.32
2018-05-03T07:32:35.445Z,1005.32
2018-05-03T07:33:35.474Z,1005.33
2018-05-03T07:34:35.539Z,1005.36
2018-05-03T07:35:35.528Z,1005.31
2018-05-03T07:36:35.580Z,1005.33
2018-05-03T07:37:35.590Z,1005.33
2018-05-03T07:38:35.612Z,1005.29
2018-05-03T07:39:35.642Z,1005.33
2018-05-03T07:40:35.695Z,1005.36
2018-05-03T07:41:35.695Z,1005.41
2018-05-03T07:42:35.724Z,1005.38
2018-05-03T07:43:35.750Z,1005.43
2018-05-03T07:44:35.777Z,1005.43
2018-05-03T07:45:35.804Z,1005.43
2018-05-03T07:46:35.834Z,1005.48
2018-05-03T07:47:35.862Z,1005.47
2018-05-03T07:48:36.590Z,1005.43
2018-05-03T07:49:35.918Z,1005.50
2018-05-03T07:50:35.949Z,1005.48
2018-05-03T07:51:35.978Z,1005.48
2018-05-03T07:52:36.024Z,1005.51
2018-05-03T07:53:36.029Z,1005.51
2018-05-03T07:54:36.055Z,1005.54
2018-05-03T07:55:36.085Z,1005.55
2018-05-03T07:56:36.187Z,1005.62
2018-05-03T07:57:36.137Z,1005.61
2018-05-03T07:58:37.099Z,1005.64
2018-05-03T07:59:36.224Z,1005.68
2018-05-03T08:00:36.225Z,1005.71
2018-05-03T08:01:36.247Z,1005.68
2018-05-03T08:02:36.347Z,1005.65
2018-05-03T08:03:36.306Z,1005.66
2018-05-03T08:04:36.330Z,1005.63
2018-05-03T08:05:36.358Z,1005.59
2018-05-03T08:06:36.387Z,1005.59
2018-05-03T08:07:36.414Z,1005.63
2018-05-03T08:08:36.472Z,1005.58
2018-05-03T08:09:36.470Z,1005.65
2018-05-03T08:10:36.495Z,1005.66
2018-05-03T08:11:36.523Z,1005.64
2018-05-03T08:12:36.636Z,1005.61
2018-05-03T08:13:36.578Z,1005.64
2018-05-03T08:14:36.606Z,1005.61
2018-05-03T08:15:36.633Z,1005.65
2018-05-03T08:16:36.660Z,1005.64
2018-05-03T08:17:36.690Z,1005.65
2018-05-03T08:18:36.721Z,1005.67
2018-05-03T08:19:36.745Z,1005.66
2018-05-03T08:20:36.774Z,1005.66
2018-05-03T08:21:36.829Z,1005.71
2018-05-03T08:22:36.828Z,1005.71
2018-05-03T08:23:36.882Z,1005.69
2018-05-03T08:24:36.888Z,1005.76
2018-05-03T08:25:36.910Z,1005.81
2018-05-03T08:26:36.937Z,1005.80
2018-05-03T08:27:36.964Z,1005.84
2018-05-03T08:28:37.090Z,1005.80
2018-05-03T08:29:37.025Z,1005.80
2018-05-03T08:30:37.053Z,1005.79
2018-05-03T08:31:37.149Z,1005.78
2018-05-03T08:32:37.101Z,1005.75
2018-05-03T08:33:37.129Z,1005.76
2018-05-03T08:34:37.158Z,1005.76
2018-05-03T08:35:37.184Z,1005.77
2018-05-03T08:36:37.212Z,1005.78
2018-05-03T08:37:37.245Z,1005.79
2018-05-03T08:38:37.325Z,1005.78
2018-05-03T08:39:37.295Z,1005.79
2018-05-03T08:40:37.323Z,1005.82
2018-05-03T08:41:37.352Z,1005.83
2018-05-03T08:42:37.381Z,1005.86
2018-05-03T08:43:37.405Z,1005.83
2018-05-03T08:44:37.433Z,1005.88
2018-05-03T08:45:37.462Z,1005.84
2018-05-03T08:46:37.490Z,1005.89
2018-05-03T08:47:37.520Z,1005.88
2018-05-03T08:48:37.554Z,1005.91
2018-05-03T08:49:37.589Z,1005.90
2018-05-03T08:50:37.600Z,1005.92
2018-05-03T08:51:37.627Z,1005.90
2018-05-03T08:52:37.655Z,1005.91
2018-05-03T08:53:37.684Z,1005.86
2018-05-03T08:54:37.710Z,1005.88
2018-05-03T08:55:37.792Z,1005.90
2018-05-03T08:56:37.767Z,1005.88
2018-05-03T08:57:37.795Z,1005.88
2018-05-03T08:58:37.822Z,1005.87
2018-05-03T08:59:37.853Z,1005.88
2018-05-03T09:00:37.879Z,1005.83
2018-05-03T09:01:37.917Z,1005.82
2018-05-03T09:02:37.953Z,1005.86
2018-05-03T09:03:37.960Z,1005.89
2018-05-03T09:04:37.991Z,1005.89
2018-05-03T09:05:38.023Z,1005.92
2018-05-03T09:06:38.046Z,1005.93
2018-05-03T09:07:38.697Z,1005.96
2018-05-03T09:08:38.103Z,1005.90
2018-05-03T09:09:38.126Z,1005.88
2018-05-03T09:10:38.162Z,1005.89
2018-05-03T09:11:38.183Z,1005.84
2018-05-03T09:12:39.138Z,1005.88
2018-05-03T09:13:38.236Z,1005.84
2018-05-03T09:14:38.264Z,1005.79
2018-05-03T09:15:38.299Z,1005.80
2018-05-03T09:16:38.327Z,1005.80
2018-05-03T09:17:38.385Z,1005.81
2018-05-03T09:18:38.378Z,1005.80
2018-05-03T09:19:38.402Z,1005.84
2018-05-03T09:20:38.433Z,1005.88
2018-05-03T09:21:38.461Z,1005.86
2018-05-03T09:22:38.486Z,1005.87
2018-05-03T09:23:38.523Z,1005.85
2018-05-03T09:24:38.542Z,1005.85
2018-05-03T09:25:38.570Z,1005.86
2018-05-03T09:26:38.602Z,1005.84
2018-05-03T09:27:38.624Z,1005.88
2018-05-03T09:28:38.651Z,1005.87
2018-05-03T09:29:38.690Z,1005.83
2018-05-03T09:30:38.740Z,1005.86
2018-05-03T09:31:38.734Z,1005.86
2018-05-03T09:32:38.762Z,1005.85
2018-05-03T09:33:38.791Z,1005.86
2018-05-03T09:34:38.823Z,1005.79
2018-05-03T09:35:38.844Z,1005.76
2018-05-03T09:36:38.873Z,1005.76
2018-05-03T09:37:38.902Z,1005.75
2018-05-03T09:38:38.929Z,1005.72
2018-05-03T09:39:38.956Z,1005.73
2018-05-03T09:40:38.984Z,1005.68
2018-05-03T09:41:39.013Z,1005.65
2018-05-03T09:42:39.041Z,1005.69
2018-05-03T09:43:39.067Z,1005.65
2018-05-03T09:44:39.096Z,1005.61
2018-05-03T09:45:39.123Z,1005.64
2018-05-03T09:46:39.151Z,1005.57
2018-05-03T09:47:39.179Z,1005.59
2018-05-03T09:48:39.206Z,1005.56
2018-05-03T09:49:39.234Z,1005.55
2018-05-03T09:50:39.266Z,1005.59
2018-05-03T09:51:39.291Z,1005.61
2018-05-03T09:52:39.317Z,1005.67
2018-05-03T09:53:39.347Z,1005.67
2018-05-03T09:54:39.410Z,1005.67
2018-05-03T09:55:39.420Z,1005.68
2018-05-03T09:56:39.431Z,1005.70
2018-05-03T09:57:39.456Z,1005.69
2018-05-03T09:58:39.484Z,1005.74
2018-05-03T09:59:39.511Z,1005.79
2018-05-03T10:00:39.539Z,1005.79
2018-05-03T10:01:39.568Z,1005.83
2018-05-03T10:02:39.595Z,1005.84
2018-05-03T10:03:39.622Z,1005.84
2018-05-03T10:04:39.656Z,1005.81
2018-05-03T10:05:39.679Z,1005.80
2018-05-03T10:06:39.708Z,1005.82
2018-05-03T10:07:39.744Z,1005.79
2018-05-03T10:08:39.762Z,1005.80
2018-05-03T10:09:39.790Z,1005.84
2018-05-03T10:10:39.894Z,1005.83
2018-05-03T10:11:39.845Z,1005.82
2018-05-03T10:12:39.873Z,1005.83
2018-05-03T10:13:39.904Z,1005.80
2018-05-03T10:14:40.025Z,1005.79
2018-05-03T10:15:39.957Z,1005.79
2018-05-03T10:16:39.985Z,1005.77
2018-05-03T10:17:40.019Z,1005.73
2018-05-03T10:18:40.083Z,1005.72
2018-05-03T10:19:40.129Z,1005.72
2018-05-03T10:20:40.126Z,1005.72
2018-05-03T10:21:40.125Z,1005.73
2018-05-03T10:22:40.267Z,1005.76
2018-05-03T10:23:40.206Z,1005.75
2018-05-03T10:24:40.206Z,1005.76
2018-05-03T10:25:40.235Z,1005.80
2018-05-03T10:26:40.263Z,1005.79
2018-05-03T10:27:40.327Z,1005.76
2018-05-03T10:28:40.353Z,1005.75
2018-05-03T10:29:40.346Z,1005.70
2018-05-03T10:30:40.376Z,1005.67
2018-05-03T10:31:40.401Z,1005.64
2018-05-03T10:32:40.429Z,1005.67
2018-05-03T10:33:40.473Z,1005.69
2018-05-03T10:34:40.485Z,1005.69
2018-05-03T10:35:40.531Z,1005.68
2018-05-03T10:36:40.556Z,1005.71
2018-05-03T10:37:40.568Z,1005.69
2018-05-03T10:38:40.596Z,1005.69
2018-05-03T10:39:40.623Z,1005.74
2018-05-03T10:40:40.652Z,1005.70
2018-05-03T10:41:40.681Z,1005.78
2018-05-03T10:42:40.708Z,1005.78
2018-05-03T10:43:40.735Z,1005.78
2018-05-03T10:44:40.763Z,1005.75
2018-05-03T10:45:40.798Z,1005.79
2018-05-03T10:46:40.832Z,1005.84
2018-05-03T10:47:40.850Z,1005.87
2018-05-03T10:48:40.949Z,1005.83
2018-05-03T10:49:40.903Z,1005.89
2018-05-03T10:50:40.931Z,1005.89
2018-05-03T10:51:40.991Z,1005.89
2018-05-03T10:52:40.985Z,1005.91
2018-05-03T10:53:41.033Z,1005.86
2018-05-03T10:54:41.041Z,1005.84
2018-05-03T10:55:41.105Z,1005.79
2018-05-03T10:56:41.096Z,1005.79
2018-05-03T10:57:41.150Z,1005.73
2018-05-03T10:58:41.161Z,1005.75
2018-05-03T10:59:41.184Z,1005.77
2018-05-03T11:00:41.207Z,1005.73
2018-05-03T11:01:41.236Z,1005.76
2018-05-03T11:02:41.269Z,1005.80
2018-05-03T11:03:41.328Z,1005.81
2018-05-03T11:04:41.322Z,1005.78
2018-05-03T11:05:41.347Z,1005.78
2018-05-03T11:06:41.378Z,1005.77
2018-05-03T11:07:41.402Z,1005.76
2018-05-03T11:08:41.431Z,1005.79
2018-05-03T11:09:41.458Z,1005.82
2018-05-03T11:10:41.486Z,1005.81
2018-05-03T11:11:41.514Z,1005.85
2018-05-03T11:12:41.541Z,1005.87
2018-05-03T11:13:41.569Z,1005.82
2018-05-03T11:14:41.597Z,1005.80
2018-05-03T11:15:41.625Z,1005.80
2018-05-03T11:16:41.721Z,1005.78
2018-05-03T11:17:41.681Z,1005.80
2018-05-03T11:18:41.724Z,1005.84
2018-05-03T11:19:41.735Z,1005.83
2018-05-03T11:20:41.769Z,1005.82
2018-05-03T11:21:41.792Z,1005.83
2018-05-03T11:22:41.820Z,1005.84
2018-05-03T11:23:41.856Z,1005.87
2018-05-03T11:24:41.875Z,1005.86
2018-05-03T11:25:41.906Z,1005.90
2018-05-03T11:26:41.932Z,1005.92
2018-05-03T11:27:41.959Z,1005.98
2018-05-03T11:28:41.989Z,1005.99
2018-05-03T11:29:42.019Z,1006.02
2018-05-03T11:30:42.045Z,1006.01
2018-05-03T11:31:42.072Z,1005.98
2018-05-03T11:32:42.098Z,1005.98
2018-05-03T11:33:42.126Z,1005.97
2018-05-03T11:34:42.155Z,1005.97
2018-05-03T11:35:42.185Z,1005.98
2018-05-03T11:36:42.289Z,1006.00
2018-05-03T11:37:42.238Z,1005.98
2018-05-03T11:38:42.268Z,1006.05
2018-05-03T11:39:42.303Z,1006.09
2018-05-03T11:40:42.349Z,1006.07
2018-05-03T11:41:42.349Z,1006.09
2018-05-03T11:42:42.427Z,1006.11
2018-05-03T11:43:42.405Z,1006.11
2018-05-03T11:44:42.466Z,1006.10
2018-05-03T11:45:42.466Z,1006.12
2018-05-03T11:46:42.488Z,1006.10
2018-05-03T11:47:42.516Z,1006.12
2018-05-03T11:48:42.632Z,1006.14
2018-05-03T11:49:42.595Z,1006.15
2018-05-03T11:50:42.600Z,1006.21
2018-05-03T11:51:42.627Z,1006.20
2018-05-03T11:52:42.654Z,1006.20
2018-05-03T11:53:42.686Z,1006.17
2018-05-03T11:54:42.712Z,1006.17
2018-05-03T11:55:42.741Z,1006.18
2018-05-03T11:56:42.766Z,1006.19
2018-05-03T11:57:42.794Z,1006.18
2018-05-03T11:58:42.822Z,1006.13
2018-05-03T11:59:42.849Z,1006.13
2018-05-03T12:00:42.877Z,1006.16
2018-05-03T12:01:42.906Z,1006.09
2018-05-03T12:02:42.945Z,1006.10
2018-05-03T12:03:42.962Z,1006.12
2018-05-03T12:04:43.015Z,1006.10
2018-05-03T12:05:43.017Z,1006.16